CheckWX is a tool to help pilots better visualize weather data.  It is not intended as a substitute for an official pre-flight weather briefing.

07:23:54 UTC

CYTL METAR
Big Trout Lake Airport
Big Trout Lake, Canada
Current

24 mins ago

CYTL 210700Z AUTO 00000KT 9SM CLR 00/ A3014 RMK TD MISG SLP221
Observed
May-21 @ 07:00 UTC
Visibility
9 SM
Flight Rules
VFR
Cloud Levels
  • Clear skies
Temperature
C / 32°F
Altimeter
30.14" Hg
Pressure
1020.62 hPa
Previous

1 hour ago

CYTL 210600Z AUTO 00000KT 9SM CLR 01/01 A3014 RMK SLP221
Observed
May-21 @ 06:00 UTC
Visibility
9 SM
Flight Rules
VFR
Cloud Levels
  • Clear skies
Temperature
C / 34°F
Dewpoint
C / 34°F
Humidity
100%
Altimeter
30.14" Hg
Pressure
1020.62 hPa
Previous

2 hours ago

CYTL 210500Z AUTO 00000KT 9SM CLR 02/02 A3016 RMK SLP226
Observed
May-21 @ 05:00 UTC
Visibility
9 SM
Flight Rules
VFR
Cloud Levels
  • Clear skies
Temperature
C / 36°F
Dewpoint
C / 36°F
Humidity
100%
Altimeter
30.16" Hg
Pressure
1021.32 hPa